Time;durP1;ratioP1;P1;durP2;ratioP2;P2;SDS_P1;SDS_P2;PMS_P1;PMS_P2;Temp;Humidity;BMP_temperature;BMP_pressure;BME280_temperature;BME280_humidity;BME280_pressure;Samples;Min_cycle;Max_cycle;Signal;HPM_P1;HPM_P2
2022/01/01 00:00:37;;;;;;;43.35;20.45;;;11.70;99.90;;;;;;5014349;28;20044;-80
2022/01/01 00:03:02;;;;;;;49.92;20.17;;;11.70;99.90;;;;;;5023650;28;20517;-80
2022/01/01 00:05:28;;;;;;;39.65;20.45;;;11.70;99.90;;;;;;5000237;28;20102;-80
2022/01/01 00:07:54;;;;;;;44.83;20.98;;;11.70;99.90;;;;;;5007787;28;20054;-80
2022/01/01 00:10:21;;;;;;;47.33;20.00;;;11.70;99.90;;;;;;4995266;28;20041;-80
2022/01/01 00:12:48;;;;;;;45.40;20.92;;;11.70;99.90;;;;;;5012728;28;20033;-80
2022/01/01 00:15:15;;;;;;;54.97;22.13;;;11.70;99.90;;;;;;5014077;28;20143;-79
2022/01/01 00:17:42;;;;;;;50.15;21.88;;;11.70;99.90;;;;;;5004523;28;20042;-80
2022/01/01 00:20:12;;;;;;;50.40;23.35;;;11.70;99.90;;;;;;5013655;28;20043;-79
2022/01/01 00:22:42;;;;;;;62.20;24.85;;;11.70;99.90;;;;;;5031758;28;20029;-80
2022/01/01 00:25:09;;;;;;;59.70;23.13;;;11.80;99.90;;;;;;5005997;28;20534;-79
2022/01/01 00:27:35;;;;;;;56.20;23.20;;;11.80;99.90;;;;;;5009239;28;20041;-80
2022/01/01 00:30:01;;;;;;;60.88;26.10;;;11.70;99.90;;;;;;5015314;28;20040;-80
2022/01/01 00:32:27;;;;;;;63.20;24.40;;;11.70;99.90;;;;;;5001554;28;20037;-80
2022/01/01 00:34:52;;;;;;;52.47;21.50;;;11.70;99.90;;;;;;5021772;28;20057;-80
2022/01/01 00:37:23;;;;;;;48.50;21.00;;;11.70;99.90;;;;;;4996616;28;20025;-80
2022/01/01 00:39:49;;;;;;;46.72;20.77;;;11.70;99.90;;;;;;5013203;28;20037;-80
2022/01/01 00:42:14;;;;;;;52.53;21.25;;;11.70;99.90;;;;;;5042560;28;20049;-79
2022/01/01 00:44:40;;;;;;;63.83;23.02;;;11.70;99.90;;;;;;5003603;28;20049;-80
2022/01/01 00:47:05;;;;;;;52.72;20.38;;;11.70;99.90;;;;;;5006147;28;20041;-80
2022/01/01 00:49:31;;;;;;;49.50;20.02;;;11.60;99.90;;;;;;5015971;28;20045;-80
2022/01/01 00:51:57;;;;;;;49.10;19.88;;;11.60;99.90;;;;;;5004146;28;20091;-80
2022/01/01 00:54:22;;;;;;;47.30;20.15;;;11.60;99.90;;;;;;5012777;28;20513;-79
2022/01/01 00:56:51;;;;;;;45.33;19.40;;;11.60;99.90;;;;;;5020945;28;20060;-79
2022/01/01 00:59:16;;;;;;;57.38;20.27;;;11.60;99.90;;;;;;5036335;28;20148;-80
2022/01/01 01:01:42;;;;;;;50.88;19.90;;;11.50;99.90;;;;;;5013440;28;20174;-80
2022/01/01 01:04:08;;;;;;;47.72;20.17;;;11.50;99.90;;;;;;5008790;28;20033;-79
2022/01/01 01:06:34;;;;;;;50.28;20.10;;;11.40;99.90;;;;;;5015127;28;20136;-80
2022/01/01 01:09:00;;;;;;;50.13;18.92;;;11.40;99.90;;;;;;5011271;28;20408;-79
2022/01/01 01:11:27;;;;;;;47.65;18.83;;;11.30;99.90;;;;;;5009627;28;20091;-79
2022/01/01 01:14:07;;;;;;;50.20;18.00;;;11.30;99.90;;;;;;5018776;28;20476;-80
2022/01/01 01:16:33;;;;;;;45.22;17.13;;;11.30;99.90;;;;;;5012544;28;20179;-79
2022/01/01 01:18:59;;;;;;;57.47;18.55;;;11.30;99.90;;;;;;5020352;28;20406;-79
2022/01/01 01:21:25;;;;;;;46.90;17.38;;;11.30;99.90;;;;;;5007204;28;20045;-80
2022/01/01 01:23:52;;;;;;;52.72;18.17;;;11.30;99.90;;;;;;5018175;28;20533;-80
2022/01/01 01:26:18;;;;;;;53.97;18.35;;;11.30;99.90;;;;;;5018051;28;20040;-80
2022/01/01 01:28:50;;;;;;;50.33;18.98;;;11.30;99.90;;;;;;5008962;28;20048;-80
2022/01/01 01:31:16;;;;;;;52.22;19.83;;;11.30;99.90;;;;;;5016797;28;20141;-79
2022/01/01 01:33:43;;;;;;;62.00;21.55;;;11.40;99.90;;;;;;5013011;28;20044;-80
2022/01/01 01:36:09;;;;;;;54.42;21.25;;;11.40;99.90;;;;;;5022623;28;20070;-80
2022/01/01 01:38:36;;;;;;;53.45;20.55;;;11.40;99.90;;;;;;4995175;28;20041;-80
2022/01/01 01:41:07;;;;;;;49.55;20.35;;;11.40;99.90;;;;;;5018055;28;20036;-79
2022/01/01 01:43:33;;;;;;;48.92;19.33;;;11.40;99.90;;;;;;4997658;28;20040;-80
2022/01/01 01:46:04;;;;;;;54.00;22.33;;;11.40;99.90;;;;;;5037407;28;20072;-79
2022/01/01 01:48:35;;;;;;;52.60;23.70;;;11.30;99.90;;;;;;4995496;28;20072;-79
2022/01/01 01:51:01;;;;;;;60.50;24.15;;;11.20;99.90;;;;;;5023082;28;20044;-80
2022/01/01 01:53:28;;;;;;;66.80;27.30;;;11.30;99.90;;;;;;5013006;28;20037;-79
2022/01/01 01:55:56;;;;;;;64.35;28.67;;;11.20;99.90;;;;;;5020560;28;20037;-80
2022/01/01 01:58:22;;;;;;;77.50;30.88;;;11.30;99.90;;;;;;5003896;28;20472;-79
2022/01/01 02:03:31;;;;;;;75.35;31.27;;;11.30;99.90;;;;;;5021845;28;20446;-79
2022/01/01 02:05:58;;;;;;;81.88;33.42;;;11.30;99.90;;;;;;5041094;28;20037;-80
2022/01/01 02:08:25;;;;;;;78.10;32.88;;;11.30;99.90;;;;;;5006850;28;20045;-80
2022/01/01 02:10:52;;;;;;;80.13;32.00;;;11.30;99.90;;;;;;5008399;28;20036;-80
2022/01/01 02:13:29;;;;;;;76.57;31.75;;;11.30;99.90;;;;;;5036397;28;20060;-79
2022/01/01 02:18:21;;;;;;;75.15;30.73;;;11.30;99.90;;;;;;5035745;28;20049;-80
2022/01/01 02:20:50;;;;;;;76.85;30.95;;;11.40;99.90;;;;;;5041588;28;20349;-79
2022/01/01 02:23:23;;;;;;;76.40;31.60;;;11.40;99.90;;;;;;5036557;28;20416;-79
2022/01/01 02:25:50;;;;;;;75.72;30.05;;;11.40;99.90;;;;;;5011363;28;20037;-80
2022/01/01 02:28:16;;;;;;;66.72;29.48;;;11.40;99.90;;;;;;5015130;28;20045;-79
2022/01/01 02:30:42;;;;;;;82.03;31.98;;;11.40;99.90;;;;;;5011843;28;20758;-80
2022/01/01 02:33:08;;;;;;;80.25;34.30;;;11.50;99.90;;;;;;4999189;28;20243;-79
2022/01/01 02:35:34;;;;;;;83.15;35.22;;;11.40;99.90;;;;;;5038548;28;20099;-80
2022/01/01 02:38:00;;;;;;;72.13;35.15;;;11.40;99.90;;;;;;5002500;28;20297;-80
2022/01/01 02:40:25;;;;;;;80.63;32.83;;;11.50;99.90;;;;;;5006986;28;20037;-80
2022/01/01 02:42:53;;;;;;;81.15;36.58;;;11.40;99.90;;;;;;5014347;28;20076;-80
2022/01/01 02:45:18;;;;;;;80.38;36.85;;;11.40;99.90;;;;;;5037154;28;20626;-79
2022/01/01 02:47:47;;;;;;;81.63;36.83;;;11.40;99.90;;;;;;5006510;28;20065;-80
2022/01/01 02:50:13;;;;;;;81.75;36.75;;;11.40;99.90;;;;;;5015143;28;20048;-80
2022/01/01 02:52:39;;;;;;;87.68;37.97;;;11.40;99.90;;;;;;5010518;28;20403;-80
2022/01/01 02:55:06;;;;;;;76.90;34.83;;;11.40;99.90;;;;;;5009330;28;20040;-79
2022/01/01 02:57:32;;;;;;;89.00;37.80;;;11.50;99.90;;;;;;5018183;28;20041;-79
2022/01/01 02:59:58;;;;;;;84.35;37.50;;;11.50;99.90;;;;;;5003614;28;20059;-79
2022/01/01 03:02:25;;;;;;;84.05;37.78;;;11.50;99.90;;;;;;5010283;28;20154;-79
2022/01/01 03:04:51;;;;;;;81.43;36.53;;;11.50;99.90;;;;;;5018826;28;20160;-80
2022/01/01 03:07:17;;;;;;;86.38;40.08;;;11.50;99.90;;;;;;5003369;28;20611;-79
2022/01/01 03:09:43;;;;;;;90.47;41.58;;;11.40;99.90;;;;;;5011276;28;20053;-80
2022/01/01 03:12:12;;;;;;;91.80;42.58;;;11.40;99.90;;;;;;5014422;28;20025;-79
2022/01/01 03:14:38;;;;;;;92.38;42.58;;;11.40;99.90;;;;;;4997179;28;20219;-79
2022/01/01 03:17:05;;;;;;;92.43;42.03;;;11.40;99.90;;;;;;5007671;28;20168;-80
2022/01/01 03:19:31;;;;;;;82.70;40.30;;;11.40;99.90;;;;;;5015807;28;20322;-79
2022/01/01 03:21:57;;;;;;;88.22;41.65;;;11.40;99.90;;;;;;5007836;28;20044;-80
2022/01/01 03:24:24;;;;;;;84.50;40.17;;;11.40;99.90;;;;;;5010166;28;20388;-80
2022/01/01 03:26:50;;;;;;;81.15;38.15;;;11.40;99.90;;;;;;5018138;28;20040;-80
2022/01/01 03:29:15;;;;;;;86.10;39.92;;;11.50;99.90;;;;;;5022279;28;20133;-80
2022/01/01 03:31:41;;;;;;;83.82;39.47;;;11.40;99.90;;;;;;5018307;28;20025;-80
2022/01/01 03:34:07;;;;;;;90.28;39.20;;;11.40;99.90;;;;;;5023659;28;20560;-80
2022/01/01 03:36:37;;;;;;;77.95;38.35;;;11.40;99.90;;;;;;5025453;28;20055;-80
2022/01/01 03:39:04;;;;;;;84.40;39.80;;;11.40;99.90;;;;;;4996717;28;20504;-80
2022/01/01 03:41:30;;;;;;;90.10;40.60;;;11.40;99.90;;;;;;5025630;28;20068;-79
2022/01/01 03:43:56;;;;;;;86.28;39.60;;;11.40;99.90;;;;;;5004757;28;20072;-80
2022/01/01 03:46:21;;;;;;;87.20;39.45;;;11.40;99.90;;;;;;4998764;28;20037;-80
2022/01/01 03:48:47;;;;;;;75.35;38.42;;;11.40;99.90;;;;;;5000877;28;20040;-80
2022/01/01 03:51:13;;;;;;;90.90;40.97;;;11.40;99.90;;;;;;5025004;28;20041;-79
2022/01/01 03:53:38;;;;;;;81.03;38.42;;;11.40;99.90;;;;;;5006985;28;20097;-80
2022/01/01 03:56:04;;;;;;;79.30;36.60;;;11.40;99.90;;;;;;5022656;28;20630;-80
2022/01/01 03:58:30;;;;;;;79.28;36.85;;;11.40;99.90;;;;;;5029111;28;20037;-80
2022/01/01 04:00:56;;;;;;;76.82;37.72;;;11.40;99.90;;;;;;5017186;28;20405;-79
2022/01/01 04:03:21;;;;;;;91.65;41.25;;;11.40;99.90;;;;;;5025228;28;20099;-80
2022/01/01 04:05:47;;;;;;;82.78;39.95;;;11.40;99.90;;;;;;5023779;28;20095;-79
2022/01/01 04:08:14;;;;;;;88.25;41.45;;;11.40;99.90;;;;;;5008324;28;20472;-80
2022/01/01 04:10:42;;;;;;;83.07;40.47;;;11.40;99.90;;;;;;5022560;28;20037;-80
2022/01/01 04:13:09;;;;;;;87.90;43.80;;;11.40;99.90;;;;;;5003621;28;20746;-79
2022/01/01 04:15:36;;;;;;;90.15;43.95;;;11.40;99.90;;;;;;5023197;28;20033;-79
2022/01/01 04:18:08;;;;;;;87.53;42.05;;;11.30;99.90;;;;;;5023074;28;20500;-79
2022/01/01 04:20:34;;;;;;;84.00;43.25;;;11.40;99.90;;;;;;5023798;28;20056;-80
2022/01/01 04:23:00;;;;;;;86.13;42.10;;;11.40;99.90;;;;;;4997862;28;20350;-80
2022/01/01 04:25:27;;;;;;;97.85;45.75;;;11.40;99.90;;;;;;5022443;28;20048;-80
2022/01/01 04:27:55;;;;;;;102.22;47.65;;;11.40;99.90;;;;;;5005280;28;20072;-79
2022/01/01 04:30:21;;;;;;;96.53;47.17;;;11.30;99.90;;;;;;5035344;28;20037;-80
2022/01/01 04:32:48;;;;;;;98.38;49.65;;;11.40;99.90;;;;;;4997235;28;20064;-79
2022/01/01 04:35:15;;;;;;;104.32;52.55;;;11.30;99.90;;;;;;5022301;28;20045;-80
2022/01/01 04:37:41;;;;;;;107.00;54.53;;;11.30;99.90;;;;;;5021503;28;20216;-80
2022/01/01 04:40:08;;;;;;;112.97;56.65;;;11.30;99.90;;;;;;5015236;28;20578;-80
2022/01/01 04:42:34;;;;;;;120.85;58.72;;;11.30;99.90;;;;;;4997473;28;20042;-79
2022/01/01 04:45:00;;;;;;;112.57;57.92;;;11.30;99.90;;;;;;5025459;28;20036;-80
2022/01/01 04:47:26;;;;;;;116.25;58.85;;;11.30;99.90;;;;;;5038879;28;20111;-80
2022/01/01 04:49:52;;;;;;;117.72;61.70;;;11.30;99.90;;;;;;5001638;28;20048;-80
2022/01/01 04:52:18;;;;;;;125.68;62.75;;;11.30;99.90;;;;;;4993987;28;20271;-80
2022/01/01 04:54:44;;;;;;;120.55;61.30;;;11.30;99.90;;;;;;4995448;28;20522;-80
2022/01/01 04:57:12;;;;;;;115.82;60.63;;;11.30;99.90;;;;;;5013056;28;20183;-79
2022/01/01 04:59:40;;;;;;;123.07;59.25;;;11.20;99.90;;;;;;5040694;28;20040;-80
2022/01/01 05:02:06;;;;;;;119.93;60.58;;;11.30;99.90;;;;;;5016137;28;20183;-80
2022/01/01 05:04:31;;;;;;;115.80;55.38;;;11.30;99.90;;;;;;5016248;28;20361;-80
2022/01/01 05:06:57;;;;;;;115.85;58.97;;;11.40;99.90;;;;;;5037436;28;20454;-80
2022/01/01 05:09:23;;;;;;;117.00;60.53;;;11.40;99.90;;;;;;4992572;28;20052;-80
2022/01/01 05:11:49;;;;;;;111.35;58.50;;;11.40;99.90;;;;;;5015269;28;20455;-80
2022/01/01 05:14:16;;;;;;;113.43;57.47;;;11.40;99.90;;;;;;5004136;28;20040;-80
2022/01/01 05:16:42;;;;;;;115.97;58.13;;;11.40;99.90;;;;;;5024754;28;20029;-80
2022/01/01 05:19:08;;;;;;;111.00;56.85;;;11.50;99.90;;;;;;5020165;28;20033;-79
2022/01/01 05:21:36;;;;;;;109.38;57.03;;;11.50;99.90;;;;;;5018851;28;20032;-79
2022/01/01 05:24:04;;;;;;;107.80;55.53;;;11.50;99.90;;;;;;5010916;28;20458;-80
2022/01/01 05:26:31;;;;;;;106.68;55.58;;;11.60;99.90;;;;;;5012187;28;20512;-80
2022/01/01 05:28:56;;;;;;;113.78;54.00;;;11.50;99.90;;;;;;5011868;28;20061;-80
2022/01/01 05:31:22;;;;;;;103.53;54.25;;;11.50;99.90;;;;;;5018288;28;20407;-80
2022/01/01 05:33:52;;;;;;;108.90;54.45;;;11.60;99.90;;;;;;5017451;28;20539;-80
2022/01/01 05:36:19;;;;;;;106.13;50.97;;;11.60;99.90;;;;;;5006062;28;20106;-80
2022/01/01 05:38:46;;;;;;;98.65;47.22;;;11.60;99.90;;;;;;5015467;28;20029;-79
2022/01/01 05:41:12;;;;;;;104.88;50.42;;;11.60;99.90;;;;;;5014848;28;20072;-80
2022/01/01 05:43:38;;;;;;;91.90;46.45;;;11.60;99.90;;;;;;5027002;28;20032;-80
2022/01/01 05:46:04;;;;;;;101.68;46.65;;;11.60;99.90;;;;;;4989073;28;20026;-80
2022/01/01 05:48:30;;;;;;;102.30;46.60;;;11.60;99.90;;;;;;5035611;28;20049;-79
2022/01/01 05:50:59;;;;;;;103.28;43.28;;;11.60;99.90;;;;;;5003380;28;20073;-79
2022/01/01 05:53:25;;;;;;;93.50;40.72;;;11.60;99.90;;;;;;5002118;28;20458;-80
2022/01/01 05:55:51;;;;;;;92.50;40.35;;;11.60;99.90;;;;;;5009219;28;20056;-80
2022/01/01 05:58:16;;;;;;;87.88;38.70;;;11.60;99.90;;;;;;5016369;28;20079;-79
2022/01/01 06:00:43;;;;;;;84.97;36.42;;;11.60;99.90;;;;;;5035365;28;20052;-80
2022/01/01 06:03:09;;;;;;;94.43;36.20;;;11.60;99.90;;;;;;5014487;28;20361;-80
2022/01/01 06:05:34;;;;;;;102.07;37.30;;;11.60;99.90;;;;;;5002401;28;20094;-79
2022/01/01 06:08:01;;;;;;;81.72;35.83;;;11.60;99.90;;;;;;5014941;28;20033;-79
2022/01/01 06:10:27;;;;;;;85.35;34.38;;;11.60;99.90;;;;;;4994737;28;20041;-79
2022/01/01 06:12:53;;;;;;;87.70;34.65;;;11.60;99.90;;;;;;5023482;28;20434;-80
2022/01/01 06:15:19;;;;;;;92.47;34.35;;;11.60;99.90;;;;;;4999541;28;20152;-80
2022/01/01 06:17:45;;;;;;;88.20;34.13;;;11.60;99.90;;;;;;5022699;28;20553;-79
2022/01/01 06:20:11;;;;;;;78.75;31.25;;;11.70;99.90;;;;;;5002549;28;20034;-79
2022/01/01 06:22:37;;;;;;;87.45;31.25;;;11.60;99.90;;;;;;4996997;28;20045;-79
2022/01/01 06:25:04;;;;;;;81.03;29.85;;;11.60;99.90;;;;;;5008823;28;20037;-79
2022/01/01 06:27:30;;;;;;;90.45;33.45;;;11.60;99.90;;;;;;5022309;28;20045;-79
2022/01/01 06:29:56;;;;;;;90.60;31.10;;;11.70;99.90;;;;;;5001917;28;20106;-80
2022/01/01 06:32:22;;;;;;;85.38;31.40;;;11.70;99.90;;;;;;5017147;28;20435;-80
2022/01/01 06:34:49;;;;;;;84.85;29.55;;;11.70;99.90;;;;;;5017242;28;20119;-80
2022/01/01 06:37:15;;;;;;;79.82;29.45;;;11.70;99.90;;;;;;5018108;28;20045;-80
2022/01/01 06:39:41;;;;;;;81.80;30.02;;;11.70;99.90;;;;;;5002723;28;20451;-80
2022/01/01 06:42:07;;;;;;;77.65;31.65;;;11.70;99.90;;;;;;5017845;28;20032;-79
2022/01/01 06:44:33;;;;;;;83.55;31.25;;;11.80;99.90;;;;;;5007031;28;20044;-80
2022/01/01 06:46:59;;;;;;;76.10;30.38;;;11.70;99.90;;;;;;5023706;28;20036;-79
2022/01/01 06:49:24;;;;;;;88.97;31.35;;;11.80;99.90;;;;;;5003060;28;20139;-80
2022/01/01 06:51:50;;;;;;;89.28;31.25;;;11.80;99.90;;;;;;5009227;28;20039;-79
2022/01/01 06:54:16;;;;;;;93.10;32.58;;;11.80;99.90;;;;;;4996951;28;20377;-79
2022/01/01 06:56:41;;;;;;;95.47;31.70;;;11.90;99.90;;;;;;4998550;28;20033;-80
2022/01/01 06:59:09;;;;;;;81.75;29.35;;;11.80;99.90;;;;;;5014047;28;20037;-79
2022/01/01 07:01:35;;;;;;;82.75;31.65;;;11.90;99.90;;;;;;5018993;28;20037;-80
2022/01/01 07:04:01;;;;;;;90.57;31.40;;;11.90;99.90;;;;;;5024359;28;20029;-80
2022/01/01 07:06:27;;;;;;;83.03;30.33;;;11.90;99.90;;;;;;5026544;28;20123;-80
2022/01/01 07:08:53;;;;;;;87.75;30.27;;;11.90;99.90;;;;;;5043495;28;20084;-80
2022/01/01 07:11:18;;;;;;;81.97;31.15;;;12.00;99.90;;;;;;5028745;28;20040;-80
2022/01/01 07:13:44;;;;;;;79.57;28.55;;;12.00;99.90;;;;;;4996876;28;20024;-80
2022/01/01 07:16:10;;;;;;;67.38;27.90;;;12.00;99.90;;;;;;5020526;28;20424;-80
2022/01/01 07:18:35;;;;;;;74.55;28.27;;;12.00;99.90;;;;;;5011062;28;20048;-79
2022/01/01 07:21:01;;;;;;;76.72;28.65;;;12.00;99.90;;;;;;5022895;28;20088;-80
2022/01/01 07:23:27;;;;;;;77.35;28.30;;;12.00;99.90;;;;;;4994864;28;20033;-80
2022/01/01 07:25:52;;;;;;;73.55;27.60;;;11.90;99.90;;;;;;5018697;28;20036;-80
2022/01/01 07:28:18;;;;;;;75.30;27.92;;;12.00;99.90;;;;;;5017988;28;20045;-80
2022/01/01 07:30:44;;;;;;;69.47;26.65;;;12.00;99.90;;;;;;5022163;28;20052;-80
2022/01/01 07:33:14;;;;;;;73.75;27.02;;;12.00;99.90;;;;;;4998028;28;20061;-80
2022/01/01 07:35:41;;;;;;;74.63;26.25;;;12.10;99.90;;;;;;5016969;28;20097;-79
2022/01/01 07:38:07;;;;;;;75.65;26.20;;;12.10;99.90;;;;;;5013481;28;20039;-80
2022/01/01 07:40:34;;;;;;;63.97;25.88;;;12.20;99.90;;;;;;4999387;28;20044;-80
2022/01/01 07:43:01;;;;;;;63.38;25.73;;;12.10;99.90;;;;;;4999841;28;20238;-79
2022/01/01 07:45:27;;;;;;;63.15;26.75;;;12.20;99.90;;;;;;5020782;28;20096;-80
2022/01/01 07:47:53;;;;;;;66.63;25.90;;;12.20;99.90;;;;;;5017506;28;20041;-80
2022/01/01 07:50:19;;;;;;;70.32;25.63;;;12.10;99.90;;;;;;4999455;28;20183;-80
2022/01/01 07:52:45;;;;;;;66.70;26.48;;;12.10;99.90;;;;;;5008958;28;20037;-80
2022/01/01 07:55:11;;;;;;;62.83;24.67;;;12.20;99.90;;;;;;4994587;28;20030;-80
2022/01/01 07:57:37;;;;;;;66.55;24.23;;;12.20;99.90;;;;;;5006934;28;20068;-80
2022/01/01 08:00:04;;;;;;;60.30;24.40;;;12.20;99.90;;;;;;5025533;28;20060;-80
2022/01/01 08:02:30;;;;;;;58.03;23.77;;;12.20;99.90;;;;;;5024150;28;20033;-80
2022/01/01 08:04:55;;;;;;;59.08;23.33;;;12.30;99.90;;;;;;5045157;28;20458;-80
2022/01/01 08:07:21;;;;;;;62.15;25.10;;;12.30;99.90;;;;;;5018860;28;20029;-80
2022/01/01 08:09:47;;;;;;;62.47;23.70;;;12.30;99.90;;;;;;5013048;28;20400;-80
2022/01/01 08:12:12;;;;;;;62.25;24.98;;;12.30;99.90;;;;;;5010317;28;20044;-80
2022/01/01 08:14:38;;;;;;;66.55;25.42;;;12.30;99.90;;;;;;5010642;28;20113;-80
2022/01/01 08:17:06;;;;;;;60.20;24.05;;;12.40;99.90;;;;;;5027816;28;20059;-80
2022/01/01 08:19:32;;;;;;;57.67;25.02;;;12.40;99.90;;;;;;5016414;28;20499;-80
2022/01/01 08:21:58;;;;;;;56.38;25.65;;;12.50;99.90;;;;;;5020148;28;20061;-80
2022/01/01 08:24:24;;;;;;;65.25;26.83;;;12.40;99.90;;;;;;5022183;28;20045;-80
2022/01/01 08:26:51;;;;;;;61.80;26.40;;;12.40;99.90;;;;;;5012808;28;20048;-80
2022/01/01 08:29:17;;;;;;;60.03;26.65;;;12.50;99.90;;;;;;5017357;28;20049;-80
2022/01/01 08:31:43;;;;;;;60.22;25.85;;;12.50;99.90;;;;;;5009577;28;20040;-80
2022/01/01 08:34:12;;;;;;;67.47;26.98;;;12.50;99.90;;;;;;5004187;28;20129;-80
2022/01/01 08:36:37;;;;;;;69.40;26.45;;;12.50;99.90;;;;;;5001109;28;20046;-80
2022/01/01 08:39:05;;;;;;;60.78;27.15;;;12.40;99.90;;;;;;4989813;28;20038;-79
2022/01/01 08:41:31;;;;;;;71.97;27.98;;;12.50;99.90;;;;;;4993319;28;20038;-80
2022/01/01 08:43:57;;;;;;;75.93;29.33;;;12.50;99.90;;;;;;4997774;28;20041;-80
2022/01/01 08:46:23;;;;;;;63.20;28.75;;;12.50;99.90;;;;;;4992364;28;20122;-80
2022/01/01 08:48:51;;;;;;;73.57;28.55;;;12.50;99.90;;;;;;4999876;28;20516;-80
2022/01/01 08:51:21;;;;;;;68.95;29.13;;;12.50;99.90;;;;;;4988547;28;20444;-80
2022/01/01 08:53:49;;;;;;;67.25;28.77;;;12.50;99.90;;;;;;4985127;28;20212;-80
2022/01/01 08:56:15;;;;;;;75.97;28.70;;;12.60;99.90;;;;;;4996095;28;20531;-80
2022/01/01 08:58:42;;;;;;;69.72;28.95;;;12.60;99.90;;;;;;4991693;28;20044;-80
2022/01/01 09:01:08;;;;;;;69.35;30.10;;;12.60;99.90;;;;;;4982739;28;20038;-80
2022/01/01 09:03:35;;;;;;;65.32;30.23;;;12.60;99.90;;;;;;4997204;28;20032;-80
2022/01/01 09:06:05;;;;;;;65.35;29.27;;;12.60;99.90;;;;;;4987406;28;20486;-80
2022/01/01 09:08:33;;;;;;;68.20;28.88;;;12.60;99.90;;;;;;4980027;28;20130;-80
2022/01/01 09:10:59;;;;;;;55.08;28.55;;;12.70;99.90;;;;;;4998994;28;20185;-80
2022/01/01 09:13:25;;;;;;;61.35;28.55;;;12.80;99.90;;;;;;4983898;28;20974;-80
2022/01/01 09:15:50;;;;;;;56.63;29.65;;;12.80;99.90;;;;;;4977276;28;20060;-80
2022/01/01 09:18:16;;;;;;;55.97;28.55;;;12.80;99.90;;;;;;4984920;28;20689;-80
2022/01/01 09:20:42;;;;;;;59.42;27.90;;;12.90;99.90;;;;;;5002525;28;20037;-80
2022/01/01 09:23:07;;;;;;;55.63;27.73;;;12.90;99.90;;;;;;5002264;28;20586;-80
2022/01/01 09:25:33;;;;;;;56.10;27.77;;;12.90;99.90;;;;;;4997361;28;20481;-80
2022/01/01 09:27:59;;;;;;;54.08;28.88;;;12.90;99.90;;;;;;4992850;28;20140;-80
2022/01/01 09:30:27;;;;;;;49.45;26.75;;;12.90;99.90;;;;;;4992156;28;20052;-80
2022/01/01 09:32:53;;;;;;;49.60;27.27;;;12.90;99.90;;;;;;4976964;28;20710;-80
2022/01/01 09:35:18;;;;;;;49.10;26.60;;;13.00;99.90;;;;;;5005125;28;20125;-80
2022/01/01 09:37:44;;;;;;;60.55;26.55;;;13.00;99.90;;;;;;5017285;28;20041;-80
2022/01/01 09:40:11;;;;;;;44.08;24.50;;;13.00;99.90;;;;;;5012302;28;20518;-80
2022/01/01 09:42:39;;;;;;;44.38;25.92;;;13.00;99.90;;;;;;4996846;28;20217;-80
2022/01/01 09:45:09;;;;;;;47.90;24.23;;;13.00;99.90;;;;;;4997926;28;20415;-80
2022/01/01 09:47:36;;;;;;;44.15;24.90;;;13.00;99.90;;;;;;5023076;28;20363;-80
2022/01/01 09:50:05;;;;;;;43.17;23.25;;;13.00;99.90;;;;;;5004122;28;20429;-80
2022/01/01 09:52:31;;;;;;;40.45;23.38;;;13.00;99.90;;;;;;4994920;28;20041;-80
2022/01/01 09:55:00;;;;;;;40.35;21.95;;;13.00;99.90;;;;;;5012574;28;20052;-80
2022/01/01 09:57:25;;;;;;;41.58;20.85;;;13.00;99.90;;;;;;5015814;28;20030;-80
2022/01/01 09:59:51;;;;;;;40.90;21.80;;;13.00;99.90;;;;;;5001902;28;20098;-80
2022/01/01 10:02:18;;;;;;;37.72;19.95;;;12.90;99.90;;;;;;5002567;28;20045;-80
2022/01/01 10:04:45;;;;;;;40.50;21.10;;;12.90;99.90;;;;;;5019163;28;20128;-80
2022/01/01 10:07:16;;;;;;;38.40;19.33;;;13.00;99.90;;;;;;4998909;28;20073;-80
2022/01/01 10:09:42;;;;;;;38.47;20.25;;;12.90;99.90;;;;;;4994316;28;20397;-80
2022/01/01 10:12:10;;;;;;;37.75;20.25;;;13.00;99.90;;;;;;5012615;28;20025;-79
2022/01/01 10:14:41;;;;;;;33.90;18.85;;;13.00;99.90;;;;;;5007569;28;20351;-80
2022/01/01 10:17:22;;;;;;;37.05;19.92;;;13.00;99.90;;;;;;5018282;28;20038;-80
2022/01/01 10:19:50;;;;;;;41.58;19.58;;;12.90;99.90;;;;;;5000628;28;20042;-80
2022/01/01 10:22:20;;;;;;;34.55;19.05;;;13.00;99.90;;;;;;5014557;28;20612;-80
2022/01/01 10:27:46;;;;;;;42.08;19.98;;;12.90;99.90;;;;;;5015227;28;20691;-80
2022/01/01 10:30:22;;;;;;;33.80;18.85;;;13.00;99.90;;;;;;5002227;28;20037;-79
2022/01/01 10:33:04;;;;;;;33.83;18.85;;;13.00;99.90;;;;;;5007793;28;20064;-80
2022/01/01 10:35:35;;;;;;;37.15;19.27;;;13.00;99.90;;;;;;4998313;28;20548;-80
2022/01/01 10:38:04;;;;;;;34.50;19.60;;;13.00;99.90;;;;;;5004504;28;20298;-79
2022/01/01 10:40:30;;;;;;;38.50;18.45;;;13.00;99.90;;;;;;4993431;28;20033;-79
2022/01/01 10:42:56;;;;;;;33.35;17.90;;;13.00;99.90;;;;;;5014932;28;20041;-80
2022/01/01 10:45:37;;;;;;;30.25;17.65;;;13.00;99.90;;;;;;5011374;28;20029;-80
2022/01/01 10:48:18;;;;;;;31.50;17.25;;;13.00;99.90;;;;;;5000777;28;20029;-79
2022/01/01 10:50:49;;;;;;;33.40;17.75;;;13.00;99.90;;;;;;5018244;28;20521;-79
2022/01/01 10:53:28;;;;;;;32.13;16.58;;;13.10;99.90;;;;;;4994971;28;20584;-79
2022/01/01 10:55:56;;;;;;;27.60;16.05;;;13.10;99.90;;;;;;5036753;28;20056;-79
2022/01/01 10:58:28;;;;;;;32.40;16.90;;;13.10;99.90;;;;;;4996948;28;20065;-79
2022/01/01 11:01:13;;;;;;;32.83;16.98;;;13.10;99.90;;;;;;5006312;28;20044;-80
2022/01/01 11:03:43;;;;;;;32.63;16.25;;;13.10;99.90;;;;;;4991133;28;20046;-79
2022/01/01 11:06:15;;;;;;;27.50;15.93;;;13.10;99.90;;;;;;4986042;28;20173;-79
2022/01/01 11:08:42;;;;;;;27.23;16.30;;;13.20;99.90;;;;;;5011591;28;20675;-79
2022/01/01 11:11:10;;;;;;;31.52;15.50;;;13.20;99.90;;;;;;5010233;28;20584;-79
2022/01/01 11:13:37;;;;;;;26.65;14.77;;;13.20;99.90;;;;;;5012244;28;20039;-80
2022/01/01 11:16:04;;;;;;;25.25;14.48;;;13.20;99.90;;;;;;5012423;28;20487;-79
2022/01/01 11:18:32;;;;;;;26.23;13.93;;;13.20;99.90;;;;;;5006019;28;20493;-80
2022/01/01 11:20:59;;;;;;;24.15;14.23;;;13.20;99.90;;;;;;4998681;28;20033;-80
2022/01/01 11:23:26;;;;;;;26.60;13.50;;;13.20;99.90;;;;;;4999572;28;20052;-79
2022/01/01 11:25:54;;;;;;;25.77;13.25;;;13.20;99.90;;;;;;4995224;28;20304;-80
2022/01/01 11:28:21;;;;;;;26.15;13.35;;;13.20;99.90;;;;;;4996776;28;20493;-80
2022/01/01 11:30:57;;;;;;;22.27;13.68;;;13.20;99.90;;;;;;5003838;28;20444;-80
2022/01/01 11:33:32;;;;;;;23.55;12.95;;;13.20;99.90;;;;;;4988699;28;20501;-79
2022/01/01 11:35:59;;;;;;;25.65;12.15;;;13.30;99.90;;;;;;5004043;28;20045;-79
2022/01/01 11:38:27;;;;;;;19.98;11.95;;;13.30;99.90;;;;;;5004093;28;20042;-80
2022/01/01 11:40:59;;;;;;;26.35;13.15;;;13.30;99.90;;;;;;5003417;28;20056;-79
2022/01/01 11:43:51;;;;;;;20.13;10.73;;;13.30;99.90;;;;;;5006036;28;20120;-80
2022/01/01 11:46:33;;;;;;;20.38;11.18;;;13.30;99.90;;;;;;4991408;28;20048;-80
2022/01/01 11:49:00;;;;;;;17.35;9.57;;;13.30;99.90;;;;;;5005774;28;20125;-79
2022/01/01 11:51:38;;;;;;;18.70;9.30;;;13.30;99.90;;;;;;4989976;28;20037;-80
2022/01/01 11:54:31;;;;;;;18.63;8.77;;;13.30;99.90;;;;;;5021578;28;20052;-79
2022/01/01 11:57:05;;;;;;;17.05;8.20;;;13.30;99.90;;;;;;5003283;28;20037;-80
2022/01/01 11:59:37;;;;;;;16.52;8.57;;;13.30;99.90;;;;;;5015705;28;20183;-79
2022/01/01 12:02:18;;;;;;;14.18;7.75;;;13.30;99.90;;;;;;4995783;28;20042;-79
2022/01/01 12:04:46;;;;;;;15.73;7.82;;;13.30;99.90;;;;;;5016245;28;20515;-80
2022/01/01 12:07:20;;;;;;;16.15;7.97;;;13.30;99.90;;;;;;5016902;28;20045;-80
2022/01/01 12:10:01;;;;;;;16.40;7.53;;;13.30;99.90;;;;;;5012330;28;20099;-80
2022/01/01 12:12:56;;;;;;;13.43;6.65;;;13.30;99.90;;;;;;5010654;28;20156;-80
2022/01/01 12:15:26;;;;;;;13.05;6.60;;;13.20;99.90;;;;;;4999895;28;20456;-79
2022/01/01 12:17:53;;;;;;;13.88;6.05;;;13.20;99.90;;;;;;5001089;28;20036;-79
2022/01/01 12:20:22;;;;;;;13.32;6.68;;;13.20;99.90;;;;;;5021455;28;20131;-80
2022/01/01 12:22:50;;;;;;;12.75;6.15;;;13.20;99.90;;;;;;4995997;28;20044;-79
2022/01/01 12:25:28;;;;;;;15.25;7.22;;;13.20;99.90;;;;;;5014385;28;20528;-80
2022/01/01 12:27:57;;;;;;;11.48;6.75;;;13.20;99.90;;;;;;4998284;28;20162;-80
2022/01/01 12:30:37;;;;;;;12.35;6.78;;;13.20;99.90;;;;;;5010199;28;20048;-80
2022/01/01 12:33:04;;;;;;;12.43;6.75;;;13.10;99.90;;;;;;4998374;28;20037;-79
2022/01/01 12:35:50;;;;;;;14.93;6.80;;;13.10;99.90;;;;;;5006149;28;20524;-80